Time;durP1;ratioP1;P1;durP2;ratioP2;P2;SDS_P1;SDS_P2;PMS_P1;PMS_P2;Temp;Humidity;BMP_temperature;BMP_pressure;BME280_temperature;BME280_humidity;BME280_pressure;Samples;Min_cycle;Max_cycle;Signal;HPM_P1;HPM_P2
2022/07/18 00:01:38;;;;;;;1.83;1.10;;;16.00;99.90;;;;;;5112121;28;20039;-87
2022/07/18 00:04:03;;;;;;;2.15;1.02;;;16.00;99.90;;;;;;5094651;28;20601;-87
2022/07/18 00:06:29;;;;;;;2.83;1.00;;;16.00;99.90;;;;;;5095559;28;20044;-87
2022/07/18 00:08:55;;;;;;;1.80;0.93;;;16.10;99.90;;;;;;5102882;28;20062;-87
2022/07/18 00:11:22;;;;;;;3.03;1.05;;;15.90;99.90;;;;;;5094177;28;20040;-86
2022/07/18 00:13:50;;;;;;;1.95;1.17;;;15.90;99.90;;;;;;5111590;28;20051;-88
2022/07/18 00:16:16;;;;;;;1.63;0.90;;;15.80;99.90;;;;;;5093457;28;20039;-89
2022/07/18 00:18:42;;;;;;;1.75;0.90;;;15.90;99.90;;;;;;5091892;28;20054;-88
2022/07/18 00:21:08;;;;;;;3.20;1.13;;;16.20;99.90;;;;;;5112771;28;20403;-87
2022/07/18 00:23:33;;;;;;;2.58;0.90;;;15.80;99.90;;;;;;5111925;28;20043;-88
2022/07/18 00:25:59;;;;;;;1.60;0.98;;;15.80;99.90;;;;;;5094251;28;20385;-87
2022/07/18 00:28:25;;;;;;;2.35;1.02;;;16.10;99.90;;;;;;5075578;28;20040;-88
2022/07/18 00:30:50;;;;;;;2.08;0.98;;;15.70;99.90;;;;;;5075021;28;20058;-88
2022/07/18 00:33:16;;;;;;;3.10;1.20;;;15.70;99.90;;;;;;5098584;28;20047;-88
2022/07/18 00:35:42;;;;;;;1.58;0.90;;;15.70;99.90;;;;;;5093442;28;20100;-88
2022/07/18 00:38:08;;;;;;;1.98;1.00;;;15.70;99.90;;;;;;5111027;28;20404;-87
2022/07/18 00:40:34;;;;;;;2.45;0.90;;;15.70;99.90;;;;;;5111948;28;20483;-86
2022/07/18 00:42:59;;;;;;;1.95;0.88;;;15.60;99.90;;;;;;5071335;28;20048;-89
2022/07/18 00:45:25;;;;;;;1.52;0.80;;;15.60;99.90;;;;;;5072468;28;20472;-89
2022/07/18 00:47:51;;;;;;;2.00;0.88;;;15.60;99.90;;;;;;5088605;28;20040;-88
2022/07/18 00:50:19;;;;;;;2.58;1.33;;;15.50;99.90;;;;;;5073918;28;20054;-87
2022/07/18 00:52:45;;;;;;;1.98;1.02;;;15.50;99.90;;;;;;5091725;28;20051;-87
2022/07/18 00:55:11;;;;;;;3.70;1.10;;;15.70;99.90;;;;;;5091622;28;20036;-88
2022/07/18 00:57:39;;;;;;;2.42;1.13;;;15.50;99.90;;;;;;5089709;28;20089;-89
2022/07/18 01:02:56;;;;;;;2.10;1.10;;;15.40;99.90;;;;;;5095421;28;20617;-89
2022/07/18 01:05:21;;;;;;;1.85;1.27;;;15.50;99.90;;;;;;5077673;28;20161;-87
2022/07/18 01:07:47;;;;;;;1.98;1.08;;;15.40;99.90;;;;;;5093121;28;20065;-87
2022/07/18 01:10:13;;;;;;;3.42;1.58;;;15.40;99.90;;;;;;5094591;28;20032;-89
2022/07/18 01:12:39;;;;;;;3.53;1.55;;;16.00;99.90;;;;;;5077090;28;20412;-89
2022/07/18 01:15:06;;;;;;;2.97;1.30;;;15.30;99.90;;;;;;5076924;28;20132;-87
2022/07/18 01:17:32;;;;;;;4.07;1.20;;;15.30;99.90;;;;;;5093993;28;20051;-88
2022/07/18 01:19:58;;;;;;;2.78;1.50;;;15.20;99.90;;;;;;5075552;28;20457;-89
2022/07/18 01:22:24;;;;;;;2.03;1.33;;;15.20;99.90;;;;;;5095567;28;20036;-88
2022/07/18 01:24:50;;;;;;;3.15;1.42;;;15.20;99.90;;;;;;5093423;28;20515;-88
2022/07/18 01:27:21;;;;;;;3.70;1.50;;;15.20;99.90;;;;;;5077858;28;20036;-89
2022/07/18 01:29:50;;;;;;;2.10;1.20;;;15.10;99.90;;;;;;5075901;28;20028;-87
2022/07/18 01:32:16;;;;;;;3.17;1.13;;;15.10;99.90;;;;;;5093629;28;20548;-88
2022/07/18 01:34:42;;;;;;;2.42;1.50;;;15.10;99.90;;;;;;5076944;28;20047;-87
2022/07/18 01:37:09;;;;;;;3.33;1.92;;;15.10;99.90;;;;;;5093679;28;20066;-87
2022/07/18 01:39:35;;;;;;;2.72;1.20;;;15.00;99.90;;;;;;5060591;28;20040;-88
2022/07/18 01:42:04;;;;;;;3.08;1.38;;;15.00;99.90;;;;;;5092434;28;20392;-86
2022/07/18 01:44:31;;;;;;;2.08;1.20;;;15.00;99.90;;;;;;5107230;28;20399;-87
2022/07/18 01:46:57;;;;;;;2.60;1.50;;;15.00;99.90;;;;;;5085444;28;20040;-88
2022/07/18 01:49:23;;;;;;;1.17;0.73;;;15.00;99.90;;;;;;5096947;28;20098;-87
2022/07/18 01:51:51;;;;;;;1.80;1.10;;;15.00;99.90;;;;;;5095545;28;20058;-87
2022/07/18 01:54:25;;;;;;;2.28;1.20;;;15.00;99.90;;;;;;5077007;28;20056;-87
2022/07/18 01:56:50;;;;;;;2.50;1.27;;;15.00;99.90;;;;;;5077109;28;20131;-88
2022/07/18 01:59:17;;;;;;;2.72;1.27;;;15.10;99.90;;;;;;5078283;28;20460;-87
2022/07/18 02:01:43;;;;;;;2.20;1.08;;;15.00;99.90;;;;;;5102730;28;20036;-87
2022/07/18 02:04:09;;;;;;;2.40;1.30;;;14.90;99.90;;;;;;5114094;28;20126;-88
2022/07/18 02:06:35;;;;;;;3.20;1.52;;;15.60;99.90;;;;;;5114925;28;20522;-88
2022/07/18 02:09:01;;;;;;;4.18;1.45;;;14.90;99.90;;;;;;5094951;28;20048;-86
2022/07/18 02:11:26;;;;;;;1.98;1.10;;;14.90;99.90;;;;;;5076457;28;20044;-87
2022/07/18 02:13:52;;;;;;;1.92;1.00;;;14.90;99.90;;;;;;5076437;28;20541;-86
2022/07/18 02:16:18;;;;;;;2.90;1.20;;;14.90;99.90;;;;;;5094603;28;20049;-89
2022/07/18 02:18:44;;;;;;;2.28;1.05;;;14.80;99.90;;;;;;5095762;28;20472;-86
2022/07/18 02:21:10;;;;;;;3.83;1.50;;;15.00;99.90;;;;;;5094686;28;20036;-87
2022/07/18 02:23:36;;;;;;;2.85;1.55;;;14.80;99.90;;;;;;5094834;28;20040;-86
2022/07/18 02:26:03;;;;;;;1.92;1.10;;;14.80;99.90;;;;;;5094839;28;20565;-87
2022/07/18 02:28:28;;;;;;;3.55;1.20;;;14.80;99.90;;;;;;5096127;28;20176;-87
2022/07/18 02:30:54;;;;;;;2.33;1.20;;;14.80;99.90;;;;;;5076779;28;20053;-86
2022/07/18 02:33:20;;;;;;;2.03;0.90;;;15.20;99.90;;;;;;5094593;28;20093;-89
2022/07/18 02:35:46;;;;;;;1.85;1.13;;;14.80;99.90;;;;;;5094326;28;20484;-87
2022/07/18 02:38:12;;;;;;;2.42;1.33;;;14.80;99.90;;;;;;5104330;28;20040;-86
2022/07/18 02:40:37;;;;;;;2.35;1.35;;;15.00;99.90;;;;;;5112387;28;20047;-86
2022/07/18 02:43:03;;;;;;;1.90;1.10;;;14.70;99.90;;;;;;5098929;28;20056;-86
2022/07/18 02:45:29;;;;;;;2.83;1.48;;;14.70;99.90;;;;;;5076076;28;20055;-86
2022/07/18 02:47:56;;;;;;;2.20;1.23;;;14.70;99.90;;;;;;5094112;28;20496;-86
2022/07/18 02:50:21;;;;;;;2.70;1.40;;;14.80;99.90;;;;;;5095316;28;20055;-86
2022/07/18 02:52:48;;;;;;;6.82;1.67;;;14.70;99.90;;;;;;5094146;28;20028;-87
2022/07/18 02:55:14;;;;;;;3.67;1.50;;;14.60;99.90;;;;;;5077387;28;20055;-86
2022/07/18 02:57:40;;;;;;;2.42;1.33;;;14.60;99.90;;;;;;5076022;28;20036;-86
2022/07/18 03:00:09;;;;;;;2.78;1.00;;;14.60;99.90;;;;;;5088827;28;20066;-87
2022/07/18 03:02:35;;;;;;;2.30;1.17;;;14.70;99.90;;;;;;5113453;28;20040;-85
2022/07/18 03:05:02;;;;;;;1.58;1.00;;;14.60;99.90;;;;;;5112237;28;20711;-88
2022/07/18 03:07:28;;;;;;;2.45;1.23;;;14.60;99.90;;;;;;5111294;28;20502;-88
2022/07/18 03:09:53;;;;;;;3.38;1.58;;;15.20;99.90;;;;;;5094764;28;20032;-88
2022/07/18 03:12:19;;;;;;;3.08;1.20;;;14.60;99.90;;;;;;5093576;28;20043;-86
2022/07/18 03:14:45;;;;;;;4.07;1.30;;;14.60;99.90;;;;;;5101955;28;20550;-86
2022/07/18 03:17:10;;;;;;;1.17;0.75;;;14.70;99.90;;;;;;5075377;28;20044;-87
2022/07/18 03:19:37;;;;;;;5.15;1.25;;;14.60;99.90;;;;;;5098538;28;20372;-86
2022/07/18 03:22:04;;;;;;;3.20;1.17;;;14.60;99.90;;;;;;5112874;28;20122;-84
2022/07/18 03:24:30;;;;;;;2.83;1.20;;;14.60;99.90;;;;;;5096103;28;20036;-86
2022/07/18 03:26:56;;;;;;;3.78;1.30;;;14.60;99.90;;;;;;5093388;28;20036;-86
2022/07/18 03:29:22;;;;;;;2.97;1.60;;;14.60;99.90;;;;;;5094677;28;20032;-86
2022/07/18 03:31:49;;;;;;;2.42;1.30;;;14.50;99.90;;;;;;5093382;28;20110;-86
2022/07/18 03:34:14;;;;;;;4.43;1.48;;;14.60;99.90;;;;;;5080488;28;20046;-85
2022/07/18 03:36:41;;;;;;;2.22;1.25;;;14.60;99.90;;;;;;5112752;28;20032;-85
2022/07/18 03:39:08;;;;;;;1.88;1.02;;;14.60;99.90;;;;;;5093340;28;20047;-86
2022/07/18 03:41:35;;;;;;;2.05;1.17;;;14.60;99.90;;;;;;5104200;28;20497;-86
2022/07/18 03:44:02;;;;;;;3.75;1.83;;;14.50;99.90;;;;;;5076194;28;20112;-86
2022/07/18 03:46:27;;;;;;;3.20;1.52;;;14.50;99.90;;;;;;5092795;28;20051;-86
2022/07/18 03:48:53;;;;;;;2.90;1.52;;;14.50;99.90;;;;;;5089376;28;20040;-86
2022/07/18 03:51:19;;;;;;;2.80;1.25;;;14.40;99.90;;;;;;5073455;28;20045;-86
2022/07/18 03:53:45;;;;;;;6.93;1.98;;;14.40;99.90;;;;;;5055235;28;20041;-86
2022/07/18 03:56:10;;;;;;;5.07;1.48;;;14.40;99.90;;;;;;5086282;28;20031;-87
2022/07/18 03:58:36;;;;;;;2.80;1.27;;;14.70;99.90;;;;;;5092148;28;20051;-85
2022/07/18 04:01:03;;;;;;;3.60;1.65;;;14.40;99.90;;;;;;5056859;28;20104;-85
2022/07/18 04:03:29;;;;;;;3.67;1.50;;;14.50;99.90;;;;;;5074934;28;20043;-87
2022/07/18 04:05:55;;;;;;;4.25;1.38;;;14.50;99.90;;;;;;5075808;28;20106;-88
2022/07/18 04:08:20;;;;;;;4.05;1.60;;;14.40;99.90;;;;;;5093029;28;20459;-88
2022/07/18 04:10:46;;;;;;;3.15;2.10;;;14.40;99.90;;;;;;5077327;28;20481;-86
2022/07/18 04:13:12;;;;;;;2.78;1.45;;;14.50;99.90;;;;;;5077231;28;20048;-86
2022/07/18 04:15:38;;;;;;;3.08;1.45;;;14.50;99.90;;;;;;5092483;28;20043;-87
2022/07/18 04:18:05;;;;;;;2.58;1.10;;;14.50;99.90;;;;;;5085322;28;20381;-87
2022/07/18 04:20:31;;;;;;;2.53;1.33;;;14.50;99.90;;;;;;5073963;28;20044;-87
2022/07/18 04:23:00;;;;;;;2.40;1.30;;;14.60;99.90;;;;;;5067813;28;20040;-86
2022/07/18 04:25:29;;;;;;;3.08;1.20;;;14.90;99.90;;;;;;5081639;28;20051;-86
2022/07/18 04:27:55;;;;;;;2.03;1.10;;;14.70;99.90;;;;;;5081994;28;20055;-85
2022/07/18 04:30:24;;;;;;;3.25;1.50;;;14.70;99.90;;;;;;5094722;28;20062;-87
2022/07/18 04:32:50;;;;;;;2.60;1.27;;;15.00;99.90;;;;;;5087589;28;20094;-86
2022/07/18 04:35:16;;;;;;;2.38;1.02;;;14.80;99.90;;;;;;5099052;28;20036;-88
2022/07/18 04:37:42;;;;;;;3.08;1.33;;;14.80;99.90;;;;;;5084060;28;20050;-87
2022/07/18 04:40:09;;;;;;;2.60;1.10;;;14.90;99.90;;;;;;5046482;28;20119;-86
2022/07/18 04:42:36;;;;;;;2.85;1.38;;;15.00;99.90;;;;;;5063868;28;20044;-85
2022/07/18 04:45:03;;;;;;;1.55;1.00;;;15.00;99.90;;;;;;5077756;28;20151;-85
2022/07/18 04:47:29;;;;;;;2.22;1.10;;;15.10;99.90;;;;;;5075659;28;20045;-87
2022/07/18 04:49:55;;;;;;;3.38;1.25;;;15.10;99.90;;;;;;5077534;28;20436;-87
2022/07/18 04:52:21;;;;;;;2.03;1.10;;;15.20;99.90;;;;;;5096439;28;20428;-85
2022/07/18 04:54:47;;;;;;;3.10;1.50;;;15.50;99.90;;;;;;5094981;28;20044;-85
2022/07/18 04:57:14;;;;;;;3.25;1.10;;;15.30;99.90;;;;;;5080122;28;20370;-87
2022/07/18 04:59:41;;;;;;;2.33;1.20;;;15.40;99.90;;;;;;5093193;28;20043;-86
2022/07/18 05:02:07;;;;;;;2.28;1.17;;;15.40;99.90;;;;;;5093440;28;20122;-88
2022/07/18 05:04:33;;;;;;;1.65;0.90;;;15.40;99.90;;;;;;5081962;28;20526;-87
2022/07/18 05:06:59;;;;;;;2.88;1.30;;;15.50;99.90;;;;;;5093367;28;20044;-88
2022/07/18 05:09:26;;;;;;;2.60;0.85;;;15.40;99.90;;;;;;5077749;28;20103;-87
2022/07/18 05:11:52;;;;;;;2.83;1.33;;;15.60;99.90;;;;;;5074699;28;20460;-89
2022/07/18 05:14:17;;;;;;;3.33;1.33;;;16.00;99.90;;;;;;5075976;28;20115;-86
2022/07/18 05:16:43;;;;;;;2.45;1.17;;;15.80;99.90;;;;;;5085438;28;20489;-88
2022/07/18 05:22:51;;;;;;;3.00;1.05;;;15.80;99.90;;;;;;5090358;28;20042;-88
2022/07/18 05:25:17;;;;;;;2.00;1.00;;;15.90;99.90;;;;;;5075421;28;20526;-88
2022/07/18 05:27:44;;;;;;;1.88;1.05;;;15.90;99.90;;;;;;5083449;28;20040;-89
2022/07/18 05:30:12;;;;;;;4.53;0.85;;;16.00;99.90;;;;;;5094336;28;20101;-88
2022/07/18 05:32:42;;;;;;;2.00;1.20;;;16.00;99.90;;;;;;5095259;28;20044;-88
2022/07/18 05:35:09;;;;;;;3.15;1.10;;;16.10;99.90;;;;;;5086636;28;20076;-88
2022/07/18 05:37:36;;;;;;;1.60;0.80;;;16.10;99.90;;;;;;5086564;28;20039;-88
2022/07/18 05:40:07;;;;;;;1.38;0.80;;;16.10;99.90;;;;;;5087681;28;20071;-88
2022/07/18 05:42:32;;;;;;;1.65;0.80;;;16.20;99.90;;;;;;5092055;28;20052;-87
2022/07/18 05:44:58;;;;;;;1.80;0.80;;;16.30;99.90;;;;;;5096726;28;20532;-88
2022/07/18 05:47:24;;;;;;;1.60;0.82;;;16.30;99.90;;;;;;5095436;28;20055;-87
2022/07/18 05:49:49;;;;;;;1.70;0.85;;;16.30;99.90;;;;;;5101055;28;20028;-88
2022/07/18 05:52:15;;;;;;;2.30;0.90;;;16.40;99.90;;;;;;5100089;28;20047;-87
2022/07/18 05:54:41;;;;;;;1.38;0.80;;;16.50;99.90;;;;;;5081866;28;20043;-88
2022/07/18 05:57:06;;;;;;;1.40;0.80;;;16.50;99.90;;;;;;5100977;28;20573;-88
2022/07/18 05:59:32;;;;;;;1.50;0.80;;;16.50;99.90;;;;;;5078437;28;20055;-88
2022/07/18 06:01:58;;;;;;;0.82;0.60;;;16.60;99.90;;;;;;5077147;28;20427;-88
2022/07/18 06:04:24;;;;;;;1.80;0.70;;;16.80;99.90;;;;;;5095078;28;20032;-87
2022/07/18 06:06:50;;;;;;;1.98;0.60;;;16.70;99.90;;;;;;5099513;28;20036;-88
2022/07/18 06:09:16;;;;;;;1.42;0.70;;;16.80;99.90;;;;;;5115153;28;20122;-89
2022/07/18 06:11:42;;;;;;;2.20;0.68;;;16.90;99.90;;;;;;5114242;28;20508;-87
2022/07/18 06:14:08;;;;;;;0.75;0.50;;;17.00;99.90;;;;;;5111987;28;20046;-87
2022/07/18 06:16:34;;;;;;;2.40;0.65;;;17.10;99.90;;;;;;5095467;28;20080;-86
2022/07/18 06:19:12;;;;;;;1.17;0.60;;;17.20;99.90;;;;;;5078999;28;20032;-90
2022/07/18 06:44:57;;;;;;;1.25;0.40;;;18.80;99.90;;;;;;4910369;29;20044;-88
2022/07/18 06:52:12;;;;;;;;;;;;;;;;;;;;;
2022/07/18 06:54:51;;;;;;;0.80;0.50;;;19.40;99.90;;;;;;4879217;29;20041;-89
2022/07/18 07:29:48;;;;;;;1.85;0.50;;;22.00;99.90;;;;;;5729389;24;20115;-90
2022/07/18 07:41:00;;;;;;;2.28;0.52;;;22.80;99.90;;;;;;4991819;23;20078;-91
2022/07/18 07:46:29;;;;;;;0.88;0.43;;;23.20;99.90;;;;;;4925138;23;20044;-88
2022/07/18 07:48:58;;;;;;;0.68;0.40;;;23.40;99.90;;;;;;4863992;29;20049;-90
2022/07/18 07:51:23;;;;;;;0.88;0.30;;;23.50;99.90;;;;;;4881005;29;20045;-90
2022/07/18 07:53:49;;;;;;;1.17;0.38;;;23.70;99.90;;;;;;4880236;29;20041;-90
2022/07/18 07:56:36;;;;;;;2.90;0.68;;;23.70;99.90;;;;;;4868203;24;20459;-88
2022/07/18 08:10:27;;;;;;;1.17;0.40;;;24.30;99.90;;;;;;4864123;24;20065;-88
2022/07/18 08:15:43;;;;;;;1.55;0.50;;;24.20;99.90;;;;;;5680764;24;20057;-90
2022/07/18 08:18:42;;;;;;;1.17;0.40;;;24.20;99.90;;;;;;4861921;29;20049;-86
2022/07/18 08:42:06;;;;;;;1.50;0.40;;;25.40;94.70;;;;;;5730205;23;20058;-92
2022/07/18 08:44:34;;;;;;;1.10;0.43;;;25.50;93.10;;;;;;4857990;29;20106;-87
2022/07/18 08:47:00;;;;;;;1.75;0.60;;;25.50;92.80;;;;;;4860217;29;20061;-85
2022/07/18 08:49:26;;;;;;;0.77;0.40;;;25.50;94.00;;;;;;4843211;29;20045;-86
2022/07/18 09:00:16;;;;;;;1.38;0.40;;;25.50;91.40;;;;;;5294987;24;20506;-90
2022/07/18 09:26:56;;;;;;;0.93;0.47;;;26.20;91.40;;;;;;4953817;23;20080;-85
2022/07/18 09:29:22;;;;;;;2.03;0.40;;;26.20;91.60;;;;;;4862790;29;21329;-86
2022/07/18 10:10:37;;;;;;;4.03;0.40;;;27.40;85.90;;;;;;4787640;30;20047;-85
2022/07/18 10:13:05;;;;;;;3.08;0.60;;;27.50;84.90;;;;;;4772717;30;20062;-86
2022/07/18 10:15:33;;;;;;;2.83;0.60;;;27.60;79.40;;;;;;4772625;30;20043;-85
2022/07/18 10:18:00;;;;;;;1.05;0.40;;;27.70;82.00;;;;;;4787533;30;20145;-86
2022/07/18 10:20:31;;;;;;;2.75;0.43;;;27.80;80.20;;;;;;4772339;30;20520;-87
2022/07/18 10:23:00;;;;;;;3.53;0.50;;;28.00;80.10;;;;;;4772303;30;20077;-89
2022/07/18 10:25:26;;;;;;;2.97;0.50;;;28.20;82.10;;;;;;4772130;30;20051;-87
2022/07/18 10:28:03;;;;;;;2.15;0.50;;;28.30;78.20;;;;;;4787277;30;20159;-86
2022/07/18 10:47:20;;;;;;;1.23;0.50;;;29.20;75.20;;;;;;5697465;24;20528;-89
2022/07/18 10:49:52;;;;;;;4.18;0.80;;;29.30;78.60;;;;;;4863944;29;20072;-93
2022/07/18 10:52:29;;;;;;;2.70;0.60;;;29.60;77.10;;;;;;4880316;29;20088;-90
2022/07/18 10:55:28;;;;;;;1.58;0.65;;;29.80;77.80;;;;;;4879375;29;20388;-90
2022/07/18 11:13:35;;;;;;;1.90;0.70;;;30.50;75.00;;;;;;5737939;23;20058;-92
2022/07/18 11:23:46;;;;;;;2.75;0.85;;;31.00;71.40;;;;;;4989552;24;20069;-90
2022/07/18 11:26:19;;;;;;;2.85;0.95;;;31.30;63.20;;;;;;4860664;29;20061;-89
2022/07/18 11:54:02;;;;;;;3.05;1.08;;;31.70;62.40;;;;;;4750827;30;20417;-90
2022/07/18 12:17:11;;;;;;;2.63;1.30;;;33.00;56.80;;;;;;5633796;23;20040;31
2022/07/18 12:28:37;;;;;;;3.63;1.58;;;33.30;58.50;;;;;;4840149;29;20061;-91
2022/07/18 12:31:04;;;;;;;2.38;1.10;;;33.50;55.90;;;;;;4860998;29;20524;-90
2022/07/18 12:34:11;;;;;;;4.72;1.30;;;33.50;57.20;;;;;;4861367;29;20080;-90
2022/07/18 12:37:02;;;;;;;2.22;1.30;;;33.50;57.40;;;;;;4861519;29;20104;-87
2022/07/18 12:39:32;;;;;;;2.75;1.42;;;33.60;55.20;;;;;;4861086;29;20045;-86
2022/07/18 12:42:00;;;;;;;1.70;1.08;;;33.90;55.50;;;;;;4853705;29;20393;-87
2022/07/18 12:44:31;;;;;;;4.70;1.15;;;34.10;57.20;;;;;;4853835;29;20096;-90
2022/07/18 12:46:59;;;;;;;4.15;1.67;;;34.10;56.80;;;;;;4862007;29;20104;-86
2022/07/18 12:49:25;;;;;;;8.73;1.80;;;34.20;55.70;;;;;;4861061;29;20446;-88
2022/07/18 12:51:51;;;;;;;4.15;1.40;;;34.10;55.70;;;;;;4861252;29;20100;-89
2022/07/18 12:54:18;;;;;;;2.45;1.50;;;34.20;57.60;;;;;;4860596;29;20057;-86
2022/07/18 12:56:44;;;;;;;2.67;1.35;;;34.10;54.20;;;;;;4863918;29;20059;-88
2022/07/18 12:59:12;;;;;;;2.63;1.40;;;34.10;56.00;;;;;;4865676;29;20053;-88
2022/07/18 13:01:37;;;;;;;2.35;1.25;;;34.10;54.20;;;;;;4864664;29;20049;-90
2022/07/18 13:08:31;;;;;;;2.63;1.30;;;34.20;54.20;;;;;;4881540;29;20101;-88
2022/07/18 13:10:58;;;;;;;3.53;1.08;;;34.20;56.00;;;;;;4880068;29;20053;-88
2022/07/18 13:13:27;;;;;;;2.15;1.23;;;34.30;53.60;;;;;;4864396;29;20426;-88
2022/07/18 13:15:56;;;;;;;2.95;1.15;;;34.20;53.90;;;;;;4857118;29;20063;-89
2022/07/18 13:18:22;;;;;;;1.90;0.95;;;34.40;56.30;;;;;;4861214;29;20047;-88
2022/07/18 13:20:47;;;;;;;2.38;1.30;;;34.60;56.10;;;;;;4863152;29;20048;-93
2022/07/18 13:23:16;;;;;;;2.17;1.20;;;34.70;55.20;;;;;;4880732;29;20048;-89
2022/07/18 13:25:42;;;;;;;2.45;1.13;;;34.90;54.20;;;;;;4874040;29;20075;-90
2022/07/18 13:28:10;;;;;;;2.15;1.13;;;35.00;55.10;;;;;;4881788;29;20053;-88
2022/07/18 13:30:38;;;;;;;2.85;1.27;;;35.10;54.90;;;;;;4880853;29;20053;-90
2022/07/18 13:33:11;;;;;;;2.63;1.20;;;35.10;53.90;;;;;;4849862;29;20578;-90
2022/07/18 13:35:40;;;;;;;1.80;1.10;;;35.00;54.50;;;;;;4863399;29;20443;-90
2022/07/18 13:38:06;;;;;;;1.70;1.05;;;35.00;55.50;;;;;;4873687;29;20060;-91
2022/07/18 13:40:32;;;;;;;2.75;1.20;;;34.90;55.40;;;;;;4863820;29;20061;-89
2022/07/18 13:43:11;;;;;;;1.67;0.90;;;35.00;54.90;;;;;;4880797;29;20092;-89
2022/07/18 13:45:40;;;;;;;3.50;1.33;;;34.80;53.90;;;;;;4863529;29;20399;-88
2022/07/18 13:48:09;;;;;;;3.13;1.25;;;34.80;52.30;;;;;;4880419;29;20041;-90
2022/07/18 13:50:34;;;;;;;2.72;1.40;;;34.60;54.10;;;;;;4862670;29;20116;-88
2022/07/18 13:53:08;;;;;;;2.13;1.48;;;34.30;51.80;;;;;;4880495;29;20447;-89
2022/07/18 13:55:34;;;;;;;2.10;1.27;;;34.20;52.50;;;;;;4863573;29;20049;-87
2022/07/18 13:58:04;;;;;;;1.67;1.10;;;34.00;51.80;;;;;;4863393;29;20056;-88
2022/07/18 14:00:30;;;;;;;1.83;1.30;;;34.00;53.10;;;;;;4863844;29;20124;-88
2022/07/18 14:02:56;;;;;;;2.97;1.75;;;33.90;51.30;;;;;;4848327;29;20185;-87
2022/07/18 14:05:21;;;;;;;3.97;1.40;;;33.50;52.10;;;;;;4863682;29;20462;-87
2022/07/18 14:07:48;;;;;;;2.72;1.40;;;33.40;54.50;;;;;;4863415;29;20040;-87
2022/07/18 14:10:19;;;;;;;2.55;1.50;;;33.40;52.70;;;;;;4854705;29;20053;-88
2022/07/18 14:12:51;;;;;;;3.10;1.88;;;33.20;54.90;;;;;;4848019;29;20060;-90
2022/07/18 14:15:16;;;;;;;2.58;1.45;;;33.20;56.90;;;;;;4864105;29;20037;-86
2022/07/18 14:17:45;;;;;;;1.42;1.00;;;33.00;54.90;;;;;;4880079;29;20423;-89
2022/07/18 14:20:25;;;;;;;1.65;1.00;;;33.00;55.50;;;;;;4879232;29;20036;-89
2022/07/18 14:22:51;;;;;;;2.65;1.35;;;33.10;54.40;;;;;;4854459;29;20041;-87
2022/07/18 14:25:17;;;;;;;1.80;1.20;;;33.50;58.50;;;;;;4863703;29;20052;-87
2022/07/18 14:27:44;;;;;;;2.30;1.30;;;33.70;55.50;;;;;;4880101;29;20045;-88
2022/07/18 14:30:43;;;;;;;4.57;1.30;;;33.70;55.80;;;;;;4879394;29;20067;-88
2022/07/18 14:33:23;;;;;;;2.20;1.40;;;33.80;55.20;;;;;;4862408;29;20086;-90
2022/07/18 14:35:55;;;;;;;2.88;1.63;;;33.90;52.90;;;;;;4871532;29;20084;-88
2022/07/18 14:38:21;;;;;;;2.25;1.40;;;33.90;54.90;;;;;;4879585;29;20116;-88
2022/07/18 14:40:46;;;;;;;2.70;1.58;;;33.80;55.00;;;;;;4862842;29;20045;-88
2022/07/18 14:43:15;;;;;;;2.75;1.30;;;34.00;55.40;;;;;;4862722;29;20053;-89
2022/07/18 14:45:48;;;;;;;3.17;1.55;;;34.00;55.30;;;;;;4862767;29;20212;-91
2022/07/18 14:48:17;;;;;;;2.65;1.27;;;33.90;56.10;;;;;;4861052;29;20379;-89
2022/07/18 14:50:46;;;;;;;2.50;1.27;;;33.60;56.60;;;;;;4861678;29;20521;-89
2022/07/18 14:53:11;;;;;;;2.38;1.30;;;33.70;56.80;;;;;;4862343;29;20068;-89
2022/07/18 14:55:47;;;;;;;1.80;1.10;;;33.90;56.70;;;;;;4847849;29;20410;-91
2022/07/18 14:58:42;;;;;;;5.70;1.60;;;33.90;55.30;;;;;;4879348;29;20463;-93
2022/07/18 15:01:08;;;;;;;2.75;1.30;;;33.90;55.30;;;;;;4879941;29;20041;-89
2022/07/18 15:03:43;;;;;;;2.40;1.40;;;33.70;53.20;;;;;;4871240;24;20059;-93
2022/07/18 15:06:18;;;;;;;2.30;1.20;;;33.30;55.90;;;;;;4862487;29;20100;-90
2022/07/18 15:08:46;;;;;;;2.35;1.27;;;33.10;54.40;;;;;;4863611;29;20056;-91
2022/07/18 15:11:44;;;;;;;2.65;1.27;;;32.90;56.20;;;;;;4877785;29;20397;-91
2022/07/18 15:14:48;;;;;;;1.70;1.15;;;32.80;57.80;;;;;;4862962;29;20041;-90
2022/07/18 15:17:46;;;;;;;;;;;;;;;;;;;;;
2022/07/18 15:20:18;;;;;;;2.67;1.10;;;33.20;56.00;;;;;;4803688;29;20066;-87
2022/07/18 15:22:44;;;;;;;2.38;1.20;;;33.00;57.60;;;;;;4801319;29;20072;-88
2022/07/18 15:29:05;;;;;;;;;;;;;;;;;;;;;
2022/07/18 15:43:04;;;;;;;3.20;1.58;;;33.60;59.20;;;;;;4625316;27;15664518;-93
2022/07/18 15:45:37;;;;;;;2.25;1.23;;;33.80;54.70;;;;;;5143921;22;20036;-91
2022/07/18 16:09:22;;;;;;;1.60;1.00;;;34.10;57.00;;;;;;5117571;22;20579;31
2022/07/18 16:12:46;;;;;;;1.80;1.00;;;34.30;56.70;;;;;;5021868;23;20054;-91
2022/07/18 18:29:53;;;;;;;5.63;1.35;;;26.30;79.70;;;;;;4870366;23;20054;-84
2022/07/18 18:32:19;;;;;;;7.82;1.40;;;26.20;79.90;;;;;;4824459;29;20051;-84
2022/07/18 18:34:44;;;;;;;3.65;1.15;;;26.20;79.40;;;;;;4824266;29;20077;-85
2022/07/18 18:37:12;;;;;;;4.22;1.25;;;26.10;79.80;;;;;;4822723;29;20467;-84
2022/07/18 18:39:40;;;;;;;3.60;0.85;;;26.00;80.50;;;;;;4824161;29;20404;-83
2022/07/18 18:42:07;;;;;;;3.88;0.77;;;25.90;80.80;;;;;;4822407;29;20570;-84
2022/07/18 18:44:34;;;;;;;4.05;0.85;;;25.80;79.00;;;;;;4823971;29;20045;-83
2022/07/18 18:46:59;;;;;;;1.75;0.70;;;25.70;78.40;;;;;;4822169;29;20053;-85
2022/07/18 18:49:25;;;;;;;2.78;0.73;;;25.60;78.90;;;;;;4807397;29;20058;-85
2022/07/18 18:58:32;;;;;;;4.25;0.88;;;25.40;79.90;;;;;;4744809;30;20430;-90
2022/07/18 19:08:58;;;;;;;;;;;;;;;;;;;;;
2022/07/18 19:22:08;;;;;;;;;;;;;;;;;;;;;
2022/07/18 19:24:58;;;;;;;5.13;0.80;;;24.20;87.40;;;;;;4695646;30;20116;-90
2022/07/18 19:28:06;;;;;;;2.25;1.05;;;24.10;89.00;;;;;;4712572;30;20064;-90
2022/07/18 19:34:41;;;;;;;;;;;;;;;;;;;;;
2022/07/18 19:37:33;;;;;;;3.55;1.10;;;23.90;92.30;;;;;;4687045;30;20045;-88
2022/07/18 19:40:58;;;;;;;5.57;1.30;;;23.80;92.50;;;;;;4691702;30;20049;-88
2022/07/18 19:43:24;;;;;;;2.92;1.10;;;23.70;93.60;;;;;;4653954;30;20108;-85
2022/07/18 19:45:50;;;;;;;4.13;0.93;;;23.50;94.60;;;;;;4657297;30;20125;-84
2022/07/18 19:48:16;;;;;;;2.63;1.05;;;23.50;95.40;;;;;;4654183;30;20129;-84
2022/07/18 19:50:42;;;;;;;4.53;1.05;;;23.40;96.10;;;;;;4656785;30;20100;-84
2022/07/18 19:53:08;;;;;;;2.97;1.20;;;23.20;96.70;;;;;;4657545;30;20070;-84
2022/07/18 19:55:34;;;;;;;2.97;1.48;;;23.10;97.70;;;;;;4633537;30;20083;-85
2022/07/18 19:58:03;;;;;;;1.88;0.98;;;23.10;98.40;;;;;;4689350;30;20075;-84
2022/07/18 20:00:29;;;;;;;2.33;1.10;;;22.90;98.70;;;;;;4745364;30;20060;-84
2022/07/18 20:02:56;;;;;;;3.03;1.50;;;22.90;99.50;;;;;;4747544;30;20063;-85
2022/07/18 20:05:23;;;;;;;3.65;1.40;;;22.70;99.90;;;;;;4722740;30;20067;-84
2022/07/18 20:07:49;;;;;;;3.42;1.10;;;22.60;99.90;;;;;;4748274;30;20127;-84
2022/07/18 20:10:17;;;;;;;2.38;1.30;;;22.40;99.90;;;;;;4759129;29;20055;-89
2022/07/18 20:12:43;;;;;;;3.65;1.23;;;22.30;99.90;;;;;;4769953;29;20424;-89
2022/07/18 20:15:45;;;;;;;;;;;;;;;;;;;;;
2022/07/18 20:18:59;;;;;;;3.83;1.65;;;22.10;99.90;;;;;;4791834;29;20509;-89
2022/07/18 20:21:30;;;;;;;3.60;1.33;;;21.90;99.90;;;;;;4832882;29;20142;-89
2022/07/18 20:24:13;;;;;;;2.85;1.33;;;21.80;99.90;;;;;;4824496;29;20051;-89
2022/07/18 20:27:27;;;;;;;;;;;;;;;;;;;;;
2022/07/18 20:30:19;;;;;;;3.00;1.17;;;21.70;99.90;;;;;;4842740;24;20053;-86
2022/07/18 20:32:45;;;;;;;2.25;1.30;;;21.50;99.90;;;;;;4745369;30;20147;-85
2022/07/18 20:35:13;;;;;;;2.58;1.05;;;21.50;99.90;;;;;;4737776;30;20064;-85
2022/07/18 20:37:41;;;;;;;2.58;1.20;;;21.40;99.90;;;;;;4737804;30;20143;-85
2022/07/18 20:40:07;;;;;;;4.35;1.55;;;21.30;99.90;;;;;;4752329;30;20055;-85
2022/07/18 20:42:33;;;;;;;3.63;1.20;;;21.20;99.90;;;;;;4761510;30;20048;-84
2022/07/18 20:44:59;;;;;;;3.10;1.33;;;21.10;99.90;;;;;;4767771;30;20060;-85
2022/07/18 20:47:27;;;;;;;2.35;1.15;;;21.00;99.90;;;;;;4752380;30;20056;-85
2022/07/18 20:49:54;;;;;;;2.88;1.27;;;20.90;99.90;;;;;;4746603;30;20056;-85
2022/07/18 20:52:20;;;;;;;2.78;1.27;;;20.90;99.90;;;;;;4752224;30;20108;-85
2022/07/18 20:54:46;;;;;;;4.18;1.27;;;20.80;99.90;;;;;;4737717;30;20059;-85
2022/07/18 20:57:11;;;;;;;4.15;1.42;;;20.80;99.90;;;;;;4751749;30;20565;-85
2022/07/18 20:59:37;;;;;;;4.47;1.42;;;20.70;99.90;;;;;;4737293;30;20087;-86
2022/07/18 21:02:03;;;;;;;2.35;1.27;;;20.70;99.90;;;;;;4752005;30;20052;-84
2022/07/18 21:04:28;;;;;;;2.10;1.17;;;20.60;99.90;;;;;;4754246;30;20099;-87
2022/07/18 21:06:54;;;;;;;2.10;1.08;;;20.50;99.90;;;;;;4752595;30;20091;-87
2022/07/18 21:09:20;;;;;;;5.15;1.73;;;20.50;99.90;;;;;;4777148;29;20534;-83
2022/07/18 21:11:45;;;;;;;4.60;1.60;;;20.40;99.90;;;;;;4825860;29;20089;-86